Liberia, Costa Rica

12:06 PM CST on May 28, 2015 (GMT -0600)
Daniel Oduber Quiros International | | Change Station
CLOSE
Current Station
Airport
Location: Liberia,
Elevation: 262 ft
Nearby Weather Stations

Elev 262 ft 10.59 °N, 85.54 °W | Updated 6 minutes ago

Mostly Cloudy
Mostly Cloudy
93 °F
Feels Like 91 °F
N
9
Wind Variable Wind from ESE

Today
High -- | Low -- °F
--% Chance of Precip.
Yesterday
High -- | Low -- °F
Precip. -- in
5:18 AM 6:00 PM
Waxing Gibbous, 77% visible
Pressure 29.84 in
Visibility 6.2 miles
Clouds Few 3500 ft
Mostly Cloudy 20000 ft
Heat Index 91 °F
Dew Point 55 °F
Humidity 28%
Rainfall 0.00 in
Snow Depth Not available.
UV 9 out of 12
Pollen Not available.
Air Quality Not available.
Flu Activity Not available.
METAR MRLB 281800Z 11008KT 9999 FEW035 BKN200 34/13 A2984

More Conditions Fewer Conditions

Pressure 29.84 in
Visibility 6.2 miles
Clouds Few 3500 ft
Mostly Cloudy 20000 ft
Heat Index 91 °F
Dew Point 55 °F
Humidity 28%
Rainfall 0.00 in
Snow Depth Not available.
UV 9 out of 12
Pollen Not available.
Air Quality Not available.
Flu Activity Not available.
METAR MRLB 281800Z 11008KT 9999 FEW035 BKN200 34/13 A2984

More Conditions Fewer Conditions

10-Day Weather Forecast

Almanac

Astronomy

May. 28, 2015 Rise Set
Actual Time
Civil Twilight
Nautical Twilight
Astronomical Twilight
Moon
Length of Visible Light
Length of Day
Tomorrow will be .
, % of the Moon is Illuminated

Today's Extremes

Country Highs Country Lows

Community

WunderPhotos

Upload Photos

1,825,007 photos uploaded!

WunderBlogs® & News

Nearby

Air Quality

  Air Quality AQ Index Pollutant
Not available.

Snow Depth

Station Depth Elevation

Earthquake Activity

City Distance Mag. Time & Date
Minimum magnitude displayed is 2.5.

Coastal Water Temperatures

Place Temperature

Stations

Nearby Weather Stations

Station Location Temp. Windchill Dew Point Humidity Wind Precip. Elev Updated Type